createdAt,value
2023-04-16T00:00:49.577Z,996.42
2023-04-16T00:01:49.617Z,996.43
2023-04-16T00:02:49.648Z,996.44
2023-04-16T00:03:49.772Z,996.44
2023-04-16T00:04:50.350Z,996.45
2023-04-16T00:05:49.515Z,996.44
2023-04-16T00:06:49.497Z,996.45
2023-04-16T00:07:49.488Z,996.47
2023-04-16T00:08:49.480Z,996.46
2023-04-16T00:09:49.913Z,996.47
2023-04-16T00:10:49.466Z,996.45
2023-04-16T00:11:49.464Z,996.48
2023-04-16T00:12:49.444Z,996.48
2023-04-16T00:13:49.430Z,996.49
2023-04-16T00:14:50.206Z,996.49
2023-04-16T00:15:49.406Z,996.50
2023-04-16T00:16:49.446Z,996.49
2023-04-16T00:17:49.421Z,996.50
2023-04-16T00:18:49.378Z,996.50
2023-04-16T00:19:49.556Z,996.49
2023-04-16T00:20:49.377Z,996.47
2023-04-16T00:21:49.346Z,996.49
2023-04-16T00:22:49.342Z,996.47
2023-04-16T00:23:49.337Z,996.48
2023-04-16T00:24:49.355Z,996.47
2023-04-16T00:25:49.311Z,996.50
2023-04-16T00:26:49.302Z,996.46
2023-04-16T00:27:49.288Z,996.48
2023-04-16T00:28:49.278Z,996.46
2023-04-16T00:29:49.608Z,996.45
2023-04-16T00:30:49.259Z,996.48
2023-04-16T00:31:49.246Z,996.46
2023-04-16T00:32:49.271Z,996.47
2023-04-16T00:33:49.224Z,996.47
2023-04-16T00:34:49.986Z,996.46
2023-04-16T00:35:49.207Z,996.48
2023-04-16T00:36:49.212Z,996.48
2023-04-16T00:37:49.187Z,996.49
2023-04-16T00:38:49.191Z,996.50
2023-04-16T00:39:49.891Z,996.51
2023-04-16T00:40:49.156Z,996.52
2023-04-16T00:41:49.150Z,996.52
2023-04-16T00:42:49.143Z,996.51
2023-04-16T00:43:49.123Z,996.52
2023-04-16T00:44:49.455Z,996.51
2023-04-16T00:45:49.156Z,996.50
2023-04-16T00:46:49.102Z,996.50
2023-04-16T00:47:49.122Z,996.50
2023-04-16T00:48:49.075Z,996.50
2023-04-16T00:49:49.468Z,996.51
2023-04-16T00:50:49.070Z,996.51
2023-04-16T00:51:49.043Z,996.47
2023-04-16T00:52:49.036Z,996.49
2023-04-16T00:53:49.025Z,996.53
2023-04-16T00:54:49.031Z,996.50
2023-04-16T00:55:49.007Z,996.50
2023-04-16T00:56:48.999Z,996.50
2023-04-16T00:57:48.982Z,996.53
2023-04-16T00:58:48.981Z,996.52
2023-04-16T00:59:49.311Z,996.50
2023-04-16T01:00:48.952Z,996.52
2023-04-16T01:01:49.001Z,996.52
2023-04-16T01:02:49.046Z,996.49
2023-04-16T01:03:49.024Z,996.51
2023-04-16T01:04:49.753Z,996.50
2023-04-16T01:05:48.904Z,996.49
2023-04-16T01:06:48.908Z,996.48
2023-04-16T01:07:48.884Z,996.49
2023-04-16T01:08:48.894Z,996.48
2023-04-16T01:09:49.590Z,996.49
2023-04-16T01:10:48.864Z,996.53
2023-04-16T01:11:48.848Z,996.56
2023-04-16T01:12:48.836Z,996.56
2023-04-16T01:13:48.833Z,996.58
2023-04-16T01:14:49.638Z,996.60
2023-04-16T01:15:48.835Z,996.62
2023-04-16T01:16:48.814Z,996.58
2023-04-16T01:17:48.861Z,996.61
2023-04-16T01:18:48.792Z,996.60
2023-04-16T01:19:49.088Z,996.61
2023-04-16T01:20:48.764Z,996.62
2023-04-16T01:21:48.744Z,996.65
2023-04-16T01:22:48.744Z,996.62
2023-04-16T01:23:48.726Z,996.66
2023-04-16T01:24:49.547Z,996.63
2023-04-16T01:25:48.708Z,996.64
2023-04-16T01:26:48.698Z,996.63
2023-04-16T01:27:48.685Z,996.66
2023-04-16T01:28:48.686Z,996.63
2023-04-16T01:29:49.021Z,996.66
2023-04-16T01:30:48.660Z,996.66
2023-04-16T01:31:48.698Z,996.66
2023-04-16T01:32:48.688Z,996.69
2023-04-16T01:33:48.632Z,996.68
2023-04-16T01:34:49.656Z,996.71
2023-04-16T01:35:48.613Z,996.70
2023-04-16T01:36:48.607Z,996.70
2023-04-16T01:37:48.586Z,996.71
2023-04-16T01:38:48.581Z,996.71
2023-04-16T01:39:49.294Z,996.72
2023-04-16T01:40:48.548Z,996.70
2023-04-16T01:41:48.550Z,996.69
2023-04-16T01:42:48.534Z,996.68
2023-04-16T01:43:48.536Z,996.69
2023-04-16T01:44:48.937Z,996.68
2023-04-16T01:45:48.513Z,996.70
2023-04-16T01:46:48.552Z,996.68
2023-04-16T01:47:48.515Z,996.66
2023-04-16T01:48:48.472Z,996.68
2023-04-16T01:49:49.363Z,996.68
2023-04-16T01:50:48.457Z,996.68
2023-04-16T01:51:48.451Z,996.69
2023-04-16T01:52:48.440Z,996.70
2023-04-16T01:53:48.431Z,996.67
2023-04-16T01:54:49.235Z,996.68
2023-04-16T01:55:48.406Z,996.68
2023-04-16T01:56:48.393Z,996.70
2023-04-16T01:57:48.391Z,996.69
2023-04-16T01:58:48.370Z,996.69
2023-04-16T01:59:49.174Z,996.70
2023-04-16T02:00:48.370Z,996.70
2023-04-16T02:01:48.389Z,996.69
2023-04-16T02:02:48.433Z,996.69
2023-04-16T02:03:48.549Z,996.71
2023-04-16T02:04:48.618Z,996.71
2023-04-16T02:05:48.307Z,996.69
2023-04-16T02:06:48.300Z,996.69
2023-04-16T02:07:48.285Z,996.71
2023-04-16T02:08:48.267Z,996.72
2023-04-16T02:09:49.030Z,996.73
2023-04-16T02:10:48.249Z,996.72
2023-04-16T02:11:48.244Z,996.75
2023-04-16T02:12:48.229Z,996.73
2023-04-16T02:13:48.222Z,996.76
2023-04-16T02:14:48.516Z,996.76
2023-04-16T02:15:48.211Z,996.75
2023-04-16T02:16:48.253Z,996.77
2023-04-16T02:17:48.250Z,996.76
2023-04-16T02:18:48.174Z,996.76
2023-04-16T02:19:48.990Z,996.77
2023-04-16T02:20:48.145Z,996.75
2023-04-16T02:21:48.140Z,996.77
2023-04-16T02:22:48.131Z,996.77
2023-04-16T02:23:48.119Z,996.76
2023-04-16T02:24:48.998Z,996.77
2023-04-16T02:25:48.113Z,996.78
2023-04-16T02:26:48.090Z,996.76
2023-04-16T02:27:48.078Z,996.75
2023-04-16T02:28:48.075Z,996.76
2023-04-16T02:29:48.611Z,996.78
2023-04-16T02:30:48.058Z,996.76
2023-04-16T02:31:48.049Z,996.77
2023-04-16T02:32:48.045Z,996.76
2023-04-16T02:33:48.041Z,996.76
2023-04-16T02:34:48.174Z,996.77
2023-04-16T02:35:47.999Z,996.76
2023-04-16T02:36:47.982Z,996.78
2023-04-16T02:37:47.984Z,996.79
2023-04-16T02:38:47.966Z,996.78
2023-04-16T02:39:48.280Z,996.81
2023-04-16T02:40:47.950Z,996.83
2023-04-16T02:41:47.944Z,996.81
2023-04-16T02:42:47.931Z,996.80
2023-04-16T02:43:47.919Z,996.84
2023-04-16T02:44:48.088Z,996.83
2023-04-16T02:45:47.909Z,996.82
2023-04-16T02:46:47.884Z,996.83
2023-04-16T02:47:47.933Z,996.86
2023-04-16T02:48:47.866Z,996.85
2023-04-16T02:49:48.276Z,996.85
2023-04-16T02:50:47.844Z,996.84
2023-04-16T02:51:47.840Z,996.88
2023-04-16T02:52:47.830Z,996.86
2023-04-16T02:53:47.817Z,996.86
2023-04-16T02:54:48.563Z,996.90
2023-04-16T02:55:47.797Z,996.88
2023-04-16T02:56:47.783Z,996.91
2023-04-16T02:57:47.782Z,996.89
2023-04-16T02:58:47.760Z,996.91
2023-04-16T02:59:48.293Z,996.93
2023-04-16T03:00:47.740Z,996.94
2023-04-16T03:01:47.905Z,996.94
2023-04-16T03:02:47.772Z,996.94
2023-04-16T03:03:47.730Z,996.97
2023-04-16T03:04:48.024Z,996.95
2023-04-16T03:05:47.691Z,996.96
2023-04-16T03:06:47.680Z,996.96
2023-04-16T03:07:47.677Z,996.96
2023-04-16T03:08:47.658Z,996.99
2023-04-16T03:09:48.385Z,997.00
2023-04-16T03:10:47.649Z,997.00
2023-04-16T03:11:47.635Z,997.00
2023-04-16T03:12:47.637Z,996.98
2023-04-16T03:13:47.616Z,997.00
2023-04-16T03:14:47.910Z,997.00
2023-04-16T03:15:47.614Z,997.03
2023-04-16T03:16:47.577Z,997.03
2023-04-16T03:17:47.607Z,997.03
2023-04-16T03:18:47.553Z,997.03
2023-04-16T03:19:47.889Z,997.04
2023-04-16T03:20:47.534Z,997.05
2023-04-16T03:21:47.536Z,997.04
2023-04-16T03:22:47.522Z,997.04
2023-04-16T03:23:47.522Z,997.03
2023-04-16T03:24:48.362Z,997.03
2023-04-16T03:25:47.500Z,997.04
2023-04-16T03:26:47.480Z,997.03
2023-04-16T03:27:47.476Z,997.05
2023-04-16T03:28:47.460Z,997.02
2023-04-16T03:29:47.763Z,997.02
2023-04-16T03:30:47.448Z,997.04
2023-04-16T03:31:47.432Z,997.03
2023-04-16T03:32:47.432Z,997.03
2023-04-16T03:33:47.407Z,997.01
2023-04-16T03:34:47.858Z,997.05
2023-04-16T03:35:47.398Z,997.01
2023-04-16T03:36:47.377Z,997.03
2023-04-16T03:37:47.371Z,997.02
2023-04-16T03:38:47.360Z,997.04
2023-04-16T03:39:48.040Z,997.04
2023-04-16T03:40:47.337Z,997.02
2023-04-16T03:41:47.347Z,997.03
2023-04-16T03:42:47.321Z,997.01
2023-04-16T03:43:47.320Z,997.06
2023-04-16T03:44:47.477Z,997.06
2023-04-16T03:45:47.287Z,997.06
2023-04-16T03:46:47.346Z,997.09
2023-04-16T03:47:47.294Z,997.10
2023-04-16T03:48:47.254Z,997.09
2023-04-16T03:49:47.960Z,997.12
2023-04-16T03:50:47.242Z,997.10
2023-04-16T03:51:47.249Z,997.14
2023-04-16T03:52:47.222Z,997.03
2023-04-16T03:53:47.214Z,997.14
2023-04-16T03:54:48.177Z,997.16
2023-04-16T03:55:47.192Z,997.16
2023-04-16T03:56:47.182Z,997.17
2023-04-16T03:57:47.174Z,997.17
2023-04-16T03:58:47.155Z,997.19
2023-04-16T03:59:47.942Z,997.17
2023-04-16T04:00:47.140Z,997.17
2023-04-16T04:01:47.171Z,997.17
2023-04-16T04:02:47.236Z,997.18
2023-04-16T04:03:47.235Z,997.19
2023-04-16T04:04:47.630Z,997.18
2023-04-16T04:05:47.044Z,997.18
2023-04-16T04:06:47.023Z,997.17
2023-04-16T04:07:47.018Z,997.18
2023-04-16T04:08:47.001Z,997.18
2023-04-16T04:09:47.882Z,997.18
2023-04-16T04:10:46.988Z,997.19
2023-04-16T04:11:46.987Z,997.19
2023-04-16T04:12:46.977Z,997.16
2023-04-16T04:13:46.970Z,997.19
2023-04-16T04:14:47.281Z,997.17
2023-04-16T04:15:46.948Z,997.19
2023-04-16T04:16:46.975Z,997.21
2023-04-16T04:17:46.961Z,997.18
2023-04-16T04:18:46.916Z,997.24
2023-04-16T04:20:00.333Z,997.21
2023-04-16T04:20:46.883Z,997.21
2023-04-16T04:21:46.886Z,997.24
2023-04-16T04:22:46.862Z,997.24
2023-04-16T04:23:46.859Z,997.23
2023-04-16T04:24:47.656Z,997.26
2023-04-16T04:25:46.867Z,997.30
2023-04-16T04:26:46.829Z,997.29
2023-04-16T04:27:46.814Z,997.33
2023-04-16T04:28:46.806Z,997.32
2023-04-16T04:29:47.659Z,997.32
2023-04-16T04:30:46.777Z,997.34
2023-04-16T04:31:46.908Z,997.33
2023-04-16T04:32:46.805Z,997.34
2023-04-16T04:33:46.757Z,997.33
2023-04-16T04:34:47.050Z,997.32
2023-04-16T04:35:46.735Z,997.34
2023-04-16T04:36:46.719Z,997.32
2023-04-16T04:37:46.711Z,997.39
2023-04-16T04:38:46.696Z,997.38
2023-04-16T04:39:46.726Z,997.38
2023-04-16T04:40:47.435Z,997.41
2023-04-16T04:41:46.675Z,997.39
2023-04-16T04:42:46.661Z,997.42
2023-04-16T04:43:46.649Z,997.43
2023-04-16T04:44:46.645Z,997.46
2023-04-16T04:45:47.397Z,997.44
2023-04-16T04:46:46.629Z,997.43
2023-04-16T04:47:46.648Z,997.44
2023-04-16T04:48:46.598Z,997.40
2023-04-16T04:49:46.589Z,997.40
2023-04-16T04:50:47.099Z,997.42
2023-04-16T04:51:46.572Z,997.41
2023-04-16T04:52:46.562Z,997.39
2023-04-16T04:53:46.552Z,997.41
2023-04-16T04:54:46.542Z,997.45
2023-04-16T04:55:49.212Z,997.44
2023-04-16T04:56:46.513Z,997.44
2023-04-16T04:57:46.521Z,997.46
2023-04-16T04:58:46.490Z,997.48
2023-04-16T04:59:46.482Z,997.49
2023-04-16T05:00:47.021Z,997.49
2023-04-16T05:01:46.463Z,997.51
2023-04-16T05:02:46.675Z,997.50
2023-04-16T05:03:46.510Z,997.52
2023-04-16T05:04:46.441Z,997.54
2023-04-16T05:05:47.170Z,997.55
2023-04-16T05:06:46.405Z,997.57
2023-04-16T05:07:46.430Z,997.58
2023-04-16T05:08:46.395Z,997.61
2023-04-16T05:09:46.389Z,997.63
2023-04-16T05:10:46.389Z,997.65
2023-04-16T05:11:46.366Z,997.67
2023-04-16T05:12:48.167Z,997.67
2023-04-16T05:13:46.347Z,997.69
2023-04-16T05:14:46.330Z,997.69
2023-04-16T05:15:46.936Z,997.69
2023-04-16T05:16:46.382Z,997.73
2023-04-16T05:17:46.319Z,997.75
2023-04-16T05:18:46.300Z,997.75
2023-04-16T05:19:46.306Z,997.76
2023-04-16T05:20:46.313Z,997.75
2023-04-16T05:21:46.264Z,997.77
2023-04-16T05:22:46.253Z,997.77
2023-04-16T05:23:46.251Z,997.80
2023-04-16T05:24:46.244Z,997.79
2023-04-16T05:25:46.900Z,997.80
2023-04-16T05:26:46.214Z,997.81
2023-04-16T05:27:46.208Z,997.83
2023-04-16T05:28:46.205Z,997.84
2023-04-16T05:29:46.195Z,997.83
2023-04-16T05:30:46.373Z,997.83
2023-04-16T05:31:46.176Z,997.85
2023-04-16T05:32:46.176Z,997.83
2023-04-16T05:33:46.153Z,997.88
2023-04-16T05:34:46.126Z,997.85
2023-04-16T05:35:46.413Z,997.85
2023-04-16T05:36:46.113Z,997.87
2023-04-16T05:37:46.109Z,997.88
2023-04-16T05:38:46.097Z,997.87
2023-04-16T05:39:46.082Z,997.88
2023-04-16T05:40:46.852Z,997.89
2023-04-16T05:41:46.066Z,997.90
2023-04-16T05:42:46.052Z,997.91
2023-04-16T05:43:46.054Z,997.92
2023-04-16T05:44:46.029Z,997.93
2023-04-16T05:45:46.420Z,997.97
2023-04-16T05:46:46.018Z,997.98
2023-04-16T05:47:46.022Z,998.02
2023-04-16T05:48:46.005Z,998.02
2023-04-16T05:49:45.974Z,998.05
2023-04-16T05:50:46.282Z,998.07
2023-04-16T05:51:45.954Z,998.15
2023-04-16T05:52:45.950Z,998.12
2023-04-16T05:53:45.946Z,998.13
2023-04-16T05:54:45.933Z,998.14
2023-04-16T05:55:46.765Z,998.15
2023-04-16T05:56:45.919Z,998.20
2023-04-16T05:57:45.901Z,998.18
2023-04-16T05:58:45.889Z,998.17
2023-04-16T05:59:45.878Z,998.17
2023-04-16T06:00:46.372Z,998.17
2023-04-16T06:01:45.861Z,998.17
2023-04-16T06:02:46.040Z,998.23
2023-04-16T06:03:45.917Z,998.24
2023-04-16T06:04:45.835Z,998.23
2023-04-16T06:05:45.962Z,998.28
2023-04-16T06:06:45.811Z,998.25
2023-04-16T06:07:45.798Z,998.27
2023-04-16T06:08:45.938Z,998.28
2023-04-16T06:09:45.776Z,998.32
2023-04-16T06:10:46.688Z,998.31
2023-04-16T06:11:45.757Z,998.28
2023-04-16T06:12:45.747Z,998.31
2023-04-16T06:13:45.738Z,998.33
2023-04-16T06:14:45.729Z,998.32
2023-04-16T06:15:46.151Z,998.32
2023-04-16T06:16:45.714Z,998.34
2023-04-16T06:17:45.730Z,998.33
2023-04-16T06:18:45.697Z,998.37
2023-04-16T06:19:45.673Z,998.33
2023-04-16T06:20:46.055Z,998.38
2023-04-16T06:21:45.655Z,998.38
2023-04-16T06:22:45.652Z,998.38
2023-04-16T06:23:45.632Z,998.40
2023-04-16T06:24:45.633Z,998.43
2023-04-16T06:25:45.934Z,998.43
2023-04-16T06:26:45.627Z,998.43
2023-04-16T06:27:45.599Z,998.48
2023-04-16T06:28:45.583Z,998.45
2023-04-16T06:29:45.573Z,998.43
2023-04-16T06:30:46.210Z,998.50
2023-04-16T06:31:45.580Z,998.47
2023-04-16T06:32:45.573Z,998.48
2023-04-16T06:33:45.539Z,998.49
2023-04-16T06:34:45.546Z,998.49
2023-04-16T06:35:46.054Z,998.50
2023-04-16T06:36:45.506Z,998.52
2023-04-16T06:37:45.494Z,998.52
2023-04-16T06:38:45.489Z,998.53
2023-04-16T06:39:45.478Z,998.53
2023-04-16T06:40:46.166Z,998.53
2023-04-16T06:41:45.447Z,998.55
2023-04-16T06:42:45.744Z,998.56
2023-04-16T06:43:45.430Z,998.57
2023-04-16T06:44:45.428Z,998.58
2023-04-16T06:45:45.949Z,998.59
2023-04-16T06:46:45.433Z,998.59
2023-04-16T06:47:45.395Z,998.61
2023-04-16T06:48:45.392Z,998.61
2023-04-16T06:49:45.373Z,998.63
2023-04-16T06:50:46.000Z,998.64
2023-04-16T06:51:45.354Z,998.64
2023-04-16T06:52:45.340Z,998.67
2023-04-16T06:53:45.329Z,998.66
2023-04-16T06:54:45.327Z,998.68
2023-04-16T06:55:46.008Z,998.65
2023-04-16T06:56:45.296Z,998.66
2023-04-16T06:57:45.286Z,998.65
2023-04-16T06:58:45.291Z,998.71
2023-04-16T06:59:45.274Z,998.66
2023-04-16T07:00:45.981Z,998.67
2023-04-16T07:01:45.270Z,998.68
2023-04-16T07:02:45.421Z,998.67
2023-04-16T07:03:45.433Z,998.68
2023-04-16T07:04:45.223Z,998.69
2023-04-16T07:05:45.509Z,998.70
2023-04-16T07:06:45.201Z,998.73
2023-04-16T07:07:45.186Z,998.74
2023-04-16T07:08:45.180Z,998.76
2023-04-16T07:09:45.169Z,998.78
2023-04-16T07:10:45.961Z,998.78
2023-04-16T07:11:45.154Z,998.79
2023-04-16T07:12:45.141Z,998.80
2023-04-16T07:13:45.134Z,998.82
2023-04-16T07:14:45.113Z,998.84
2023-04-16T07:15:45.458Z,998.87
2023-04-16T07:16:45.139Z,998.87
2023-04-16T07:17:45.120Z,998.90
2023-04-16T07:18:45.085Z,998.90
2023-04-16T07:19:45.070Z,998.92
2023-04-16T07:20:45.366Z,998.91
2023-04-16T07:21:45.047Z,998.94
2023-04-16T07:22:45.038Z,998.97
2023-04-16T07:23:45.035Z,998.96
2023-04-16T07:24:45.027Z,998.97
2023-04-16T07:25:46.097Z,998.96
2023-04-16T07:26:45.005Z,998.97
2023-04-16T07:27:44.996Z,998.97
2023-04-16T07:28:44.977Z,998.99
2023-04-16T07:29:44.959Z,998.99
2023-04-16T07:30:45.767Z,999.01
2023-04-16T07:31:44.980Z,999.01
2023-04-16T07:32:44.973Z,999.06
2023-04-16T07:33:44.933Z,999.06
2023-04-16T07:34:44.921Z,999.06
2023-04-16T07:35:45.071Z,999.09
2023-04-16T07:36:44.895Z,999.08
2023-04-16T07:37:44.894Z,999.11
2023-04-16T07:38:44.876Z,999.10
2023-04-16T07:39:44.869Z,999.11
2023-04-16T07:40:45.682Z,999.12
2023-04-16T07:41:44.848Z,999.12
2023-04-16T07:42:44.836Z,999.16
2023-04-16T07:43:44.818Z,999.20
2023-04-16T07:44:44.820Z,999.17
2023-04-16T07:45:44.825Z,999.19
2023-04-16T07:46:47.271Z,999.20
2023-04-16T07:47:44.848Z,999.22
2023-04-16T07:48:44.787Z,999.23
2023-04-16T07:49:44.760Z,999.20
2023-04-16T07:50:44.765Z,999.24
2023-04-16T07:51:44.917Z,999.23
2023-04-16T07:52:44.735Z,999.25
2023-04-16T07:53:44.724Z,999.27
2023-04-16T07:54:44.715Z,999.27
2023-04-16T07:55:44.695Z,999.29
2023-04-16T07:56:45.345Z,999.30
2023-04-16T07:57:44.677Z,999.31
2023-04-16T07:58:44.675Z,999.32
2023-04-16T07:59:44.661Z,999.34
2023-04-16T08:00:44.660Z,999.33
2023-04-16T08:01:44.822Z,999.35
2023-04-16T08:02:44.929Z,999.35
2023-04-16T08:03:44.872Z,999.36
2023-04-16T08:04:45.007Z,999.37
2023-04-16T08:05:44.599Z,999.39
2023-04-16T08:06:45.493Z,999.40
2023-04-16T08:07:44.587Z,999.40
2023-04-16T08:08:44.575Z,999.41
2023-04-16T08:09:44.559Z,999.42
2023-04-16T08:10:44.548Z,999.42
2023-04-16T08:11:44.846Z,999.45
2023-04-16T08:12:44.540Z,999.46
2023-04-16T08:13:44.518Z,999.49
2023-04-16T08:14:44.510Z,999.53
2023-04-16T08:15:44.516Z,999.53
2023-04-16T08:16:45.484Z,999.54
2023-04-16T08:17:44.512Z,999.55
2023-04-16T08:18:44.470Z,999.58
2023-04-16T08:19:44.460Z,999.61
2023-04-16T08:20:44.450Z,999.61
2023-04-16T08:21:44.767Z,999.62
2023-04-16T08:22:44.428Z,999.63
2023-04-16T08:23:44.415Z,999.63
2023-04-16T08:24:44.410Z,999.65
2023-04-16T08:25:44.400Z,999.67
2023-04-16T08:26:45.341Z,999.70
2023-04-16T08:27:44.379Z,999.72
2023-04-16T08:28:44.374Z,999.73
2023-04-16T08:29:44.360Z,999.75
2023-04-16T08:30:44.351Z,999.76
2023-04-16T08:31:44.815Z,999.83
2023-04-16T08:32:44.380Z,999.84
2023-04-16T08:33:44.313Z,999.86
2023-04-16T08:34:44.308Z,999.88
2023-04-16T08:35:44.295Z,999.91
2023-04-16T08:36:45.001Z,999.92
2023-04-16T08:37:44.276Z,999.94
2023-04-16T08:38:44.266Z,999.94
2023-04-16T08:39:44.256Z,999.94
2023-04-16T08:40:44.380Z,999.96
2023-04-16T08:41:45.098Z,999.98
2023-04-16T08:42:44.226Z,999.97
2023-04-16T08:43:44.219Z,999.96
2023-04-16T08:44:44.210Z,1000.00
2023-04-16T08:45:44.200Z,999.97
2023-04-16T08:46:44.213Z,1000.01
2023-04-16T08:47:44.490Z,1000.02
2023-04-16T08:48:44.170Z,1000.06
2023-04-16T08:49:44.149Z,1000.04
2023-04-16T08:50:44.484Z,1000.07
2023-04-16T08:51:44.123Z,1000.05
2023-04-16T08:52:44.126Z,1000.09
2023-04-16T08:53:44.119Z,1000.03
2023-04-16T08:54:44.105Z,1000.07
2023-04-16T08:55:44.818Z,1000.08
2023-04-16T08:56:44.084Z,1000.08
2023-04-16T08:57:44.065Z,1000.12
2023-04-16T08:58:44.063Z,1000.12
2023-04-16T08:59:44.049Z,1000.14
2023-04-16T09:00:44.351Z,1000.15
2023-04-16T09:01:44.034Z,1000.15
2023-04-16T09:02:44.132Z,1000.16
2023-04-16T09:03:44.105Z,1000.17
2023-04-16T09:04:44.148Z,1000.18
2023-04-16T09:05:44.333Z,1000.11
2023-04-16T09:06:43.979Z,1000.17
2023-04-16T09:07:43.964Z,1000.16
2023-04-16T09:08:43.969Z,1000.17
2023-04-16T09:09:43.944Z,1000.14
2023-04-16T09:10:44.705Z,1000.19
2023-04-16T09:11:43.925Z,1000.18
2023-04-16T09:12:43.919Z,1000.14
2023-04-16T09:13:43.900Z,1000.20
2023-04-16T09:14:43.902Z,1000.21
2023-04-16T09:15:44.245Z,1000.21
2023-04-16T09:16:43.926Z,1000.21
2023-04-16T09:17:43.934Z,1000.24
2023-04-16T09:18:43.859Z,1000.26
2023-04-16T09:19:43.839Z,1000.26
2023-04-16T09:20:43.849Z,1000.28
2023-04-16T09:21:44.549Z,1000.30
2023-04-16T09:22:43.822Z,1000.25
2023-04-16T09:23:43.824Z,1000.27
2023-04-16T09:24:43.848Z,1000.27
2023-04-16T09:25:43.786Z,1000.28
2023-04-16T09:27:05.546Z,1000.29
2023-04-16T09:27:43.758Z,1000.30
2023-04-16T09:28:43.756Z,1000.29
2023-04-16T09:29:43.762Z,1000.33
2023-04-16T09:30:43.737Z,1000.34
2023-04-16T09:31:44.116Z,1000.32
2023-04-16T09:32:43.752Z,1000.40
2023-04-16T09:33:43.712Z,1000.36
2023-04-16T09:34:43.716Z,1000.39
2023-04-16T09:35:43.691Z,1000.38
2023-04-16T09:36:44.007Z,1000.40
2023-04-16T09:37:43.678Z,1000.40
2023-04-16T09:38:43.675Z,1000.41
2023-04-16T09:39:43.692Z,1000.41
2023-04-16T09:40:43.636Z,1000.41
2023-04-16T09:41:44.399Z,1000.36
2023-04-16T09:42:43.653Z,1000.43
2023-04-16T09:43:43.665Z,1000.40
2023-04-16T09:44:43.605Z,1000.40
2023-04-16T09:45:43.605Z,1000.44
2023-04-16T09:46:43.887Z,1000.43
2023-04-16T09:47:43.632Z,1000.47
2023-04-16T09:48:43.557Z,1000.47
2023-04-16T09:49:43.547Z,1000.48
2023-04-16T09:50:43.535Z,1000.47
2023-04-16T09:51:44.345Z,1000.50
2023-04-16T09:52:43.512Z,1000.51
2023-04-16T09:53:43.495Z,1000.51
2023-04-16T09:54:43.493Z,1000.53
2023-04-16T09:55:45.300Z,1000.54
2023-04-16T09:56:43.776Z,1000.56
2023-04-16T09:57:43.456Z,1000.56
2023-04-16T09:58:43.447Z,1000.57
2023-04-16T09:59:43.441Z,1000.59
2023-04-16T10:00:43.851Z,1000.59
2023-04-16T10:01:44.306Z,1000.59
2023-04-16T10:02:43.453Z,1000.60
2023-04-16T10:03:43.605Z,1000.60
2023-04-16T10:04:43.415Z,1000.61
2023-04-16T10:05:43.387Z,1000.59
2023-04-16T10:06:43.733Z,1000.63
2023-04-16T10:07:43.364Z,1000.61
2023-04-16T10:08:43.349Z,1000.61
2023-04-16T10:09:43.338Z,1000.62
2023-04-16T10:10:43.333Z,1000.64
2023-04-16T10:11:43.629Z,1000.62
2023-04-16T10:12:43.303Z,1000.63
2023-04-16T10:13:43.328Z,1000.64
2023-04-16T10:14:43.312Z,1000.65
2023-04-16T10:15:43.286Z,1000.65
2023-04-16T10:16:43.781Z,1000.66
2023-04-16T10:17:43.300Z,1000.66
2023-04-16T10:18:43.266Z,1000.67
2023-04-16T10:19:43.250Z,1000.69
2023-04-16T10:20:43.222Z,1000.67
2023-04-16T10:21:43.523Z,1000.69
2023-04-16T10:22:43.204Z,1000.72
2023-04-16T10:23:43.203Z,1000.74
2023-04-16T10:24:43.185Z,1000.75
2023-04-16T10:25:43.193Z,1000.73
2023-04-16T10:26:43.967Z,1000.75
2023-04-16T10:27:43.167Z,1000.74
2023-04-16T10:28:43.146Z,1000.75
2023-04-16T10:29:43.136Z,1000.75
2023-04-16T10:30:43.136Z,1000.77
2023-04-16T10:31:43.408Z,1000.78
2023-04-16T10:32:43.159Z,1000.79
2023-04-16T10:33:43.107Z,1000.80
2023-04-16T10:34:43.080Z,1000.80
2023-04-16T10:35:43.075Z,1000.81
2023-04-16T10:36:43.535Z,1000.82
2023-04-16T10:37:43.115Z,1000.82
2023-04-16T10:38:43.048Z,1000.83
2023-04-16T10:39:43.034Z,1000.84
2023-04-16T10:40:43.017Z,1000.84
2023-04-16T10:41:43.287Z,1000.85
2023-04-16T10:42:43.000Z,1000.84
2023-04-16T10:43:43.008Z,1000.87
2023-04-16T10:44:45.424Z,1000.86
2023-04-16T10:45:42.994Z,1000.86
2023-04-16T10:46:43.493Z,1000.87
2023-04-16T10:47:42.971Z,1000.88
2023-04-16T10:48:49.725Z,1000.89
2023-04-16T10:49:42.936Z,1000.90
2023-04-16T10:50:42.917Z,1000.90
2023-04-16T10:51:43.313Z,1000.90
2023-04-16T10:52:42.901Z,1000.92
2023-04-16T10:53:42.898Z,1000.91
2023-04-16T10:54:42.882Z,1000.92
2023-04-16T10:55:42.876Z,1000.92
2023-04-16T10:56:43.699Z,1000.93
2023-04-16T10:57:42.857Z,1000.93
2023-04-16T10:58:42.847Z,1000.92
2023-04-16T10:59:42.831Z,1000.93
2023-04-16T11:00:42.826Z,1000.92
2023-04-16T11:01:43.273Z,1000.93
2023-04-16T11:02:43.071Z,1000.94
2023-04-16T11:03:42.958Z,1000.94
2023-04-16T11:04:42.856Z,1000.95
2023-04-16T11:05:42.772Z,1000.96
2023-04-16T11:06:43.101Z,1000.95
2023-04-16T11:07:42.751Z,1000.95
2023-04-16T11:08:54.068Z,1000.95
2023-04-16T11:09:42.734Z,1000.98
2023-04-16T11:10:42.717Z,1000.97
2023-04-16T11:11:43.418Z,1000.97
2023-04-16T11:12:42.699Z,1000.98
2023-04-16T11:13:43.604Z,1000.98
2023-04-16T11:14:42.675Z,1000.99
2023-04-16T11:15:42.690Z,1000.99
2023-04-16T11:16:43.182Z,1000.99
2023-04-16T11:17:42.681Z,1001.01
2023-04-16T11:18:50.946Z,1001.02
2023-04-16T11:19:42.633Z,1001.02
2023-04-16T11:20:42.618Z,1001.02
2023-04-16T11:21:42.880Z,1001.05
2023-04-16T11:22:42.598Z,1001.04
2023-04-16T11:23:42.607Z,1001.04
2023-04-16T11:24:42.577Z,1001.08
2023-04-16T11:25:42.581Z,1001.04
2023-04-16T11:26:43.274Z,1001.04
2023-04-16T11:27:42.560Z,1001.04
2023-04-16T11:28:42.543Z,1001.03
2023-04-16T11:29:42.535Z,1001.04
2023-04-16T11:30:42.521Z,1001.04
2023-04-16T11:31:42.566Z,1001.04
2023-04-16T11:32:43.404Z,1001.03
2023-04-16T11:33:42.489Z,1001.03
2023-04-16T11:34:42.484Z,1001.04
2023-04-16T11:35:42.473Z,1001.02
2023-04-16T11:36:43.013Z,1001.02
2023-04-16T11:37:42.453Z,1001.02
2023-04-16T11:38:42.442Z,1001.03
2023-04-16T11:39:42.434Z,1001.07
2023-04-16T11:40:42.436Z,1001.02
2023-04-16T11:41:42.417Z,1001.05
2023-04-16T11:42:43.243Z,1001.06
2023-04-16T11:43:42.408Z,1001.06
2023-04-16T11:44:42.383Z,1001.06
2023-04-16T11:45:42.376Z,1001.07
2023-04-16T11:46:42.422Z,1001.08
2023-04-16T11:47:43.111Z,1001.09
2023-04-16T11:48:42.341Z,1001.10
2023-04-16T11:49:42.335Z,1001.11
2023-04-16T11:50:42.327Z,1001.06
2023-04-16T11:51:42.316Z,1001.10
2023-04-16T11:52:42.804Z,1001.12
2023-04-16T11:53:42.295Z,1001.12
2023-04-16T11:54:42.280Z,1001.12
2023-04-16T11:55:42.277Z,1001.12
2023-04-16T11:56:42.267Z,1001.16
2023-04-16T11:57:42.996Z,1001.13
2023-04-16T11:58:43.158Z,1001.13
2023-04-16T12:00:02.278Z,1001.15
2023-04-16T12:00:42.217Z,1001.13
2023-04-16T12:01:42.232Z,1001.15
2023-04-16T12:02:42.734Z,1001.15
2023-04-16T12:03:42.551Z,1001.15
2023-04-16T12:04:42.346Z,1001.16
2023-04-16T12:05:42.193Z,1001.18
2023-04-16T12:06:42.498Z,1001.18
2023-04-16T12:07:42.158Z,1001.18
2023-04-16T12:08:42.138Z,1001.21
2023-04-16T12:09:42.139Z,1001.19
2023-04-16T12:10:42.122Z,1001.18
2023-04-16T12:11:42.944Z,1001.20
2023-04-16T12:12:42.103Z,1001.19
2023-04-16T12:13:42.093Z,1001.16
2023-04-16T12:14:42.096Z,1001.18
2023-04-16T12:15:42.077Z,1001.19
2023-04-16T12:16:42.469Z,1001.17
2023-04-16T12:17:42.107Z,1001.17
2023-04-16T12:18:42.039Z,1001.17
2023-04-16T12:19:42.042Z,1001.18
2023-04-16T12:20:42.019Z,1001.15
2023-04-16T12:21:42.834Z,1001.17